sensor_id;sensor_type;location;lat;lon;timestamp;P1;P2;P0
67376;PMS7003;54261;46.086;6.588;2023-02-18T00:03:37;4.50;4.50;4.00
67376;PMS7003;54261;46.086;6.588;2023-02-18T00:08:39;3.75;3.25;3.00
67376;PMS7003;54261;46.086;6.588;2023-02-18T00:13:42;2.00;2.00;2.00
67376;PMS7003;54261;46.086;6.588;2023-02-18T00:18:44;4.50;3.25;3.00
67376;PMS7003;54261;46.086;6.588;2023-02-18T00:23:46;4.00;2.00;1.50
67376;PMS7003;54261;46.086;6.588;2023-02-18T00:28:48;5.00;5.00;3.00
67376;PMS7003;54261;46.086;6.588;2023-02-18T00:33:49;6.00;4.25;3.75
67376;PMS7003;54261;46.086;6.588;2023-02-18T00:38:53;6.25;4.75;3.25
67376;PMS7003;54261;46.086;6.588;2023-02-18T00:43:56;2.75;2.75;2.00
67376;PMS7003;54261;46.086;6.588;2023-02-18T00:48:58;7.75;4.00;3.00
67376;PMS7003;54261;46.086;6.588;2023-02-18T00:54:00;6.00;3.00;2.00
67376;PMS7003;54261;46.086;6.588;2023-02-18T00:59:02;2.00;2.00;1.25
67376;PMS7003;54261;46.086;6.588;2023-02-18T01:04:04;2.25;2.25;1.25
67376;PMS7003;54261;46.086;6.588;2023-02-18T01:09:06;2.00;2.00;1.75
67376;PMS7003;54261;46.086;6.588;2023-02-18T01:14:07;5.75;5.75;3.50
67376;PMS7003;54261;46.086;6.588;2023-02-18T01:19:09;4.00;3.25;2.50
67376;PMS7003;54261;46.086;6.588;2023-02-18T01:24:12;3.75;3.75;3.00
67376;PMS7003;54261;46.086;6.588;2023-02-18T01:29:16;2.75;2.75;1.75
67376;PMS7003;54261;46.086;6.588;2023-02-18T01:34:17;3.00;3.00;3.00
67376;PMS7003;54261;46.086;6.588;2023-02-18T01:39:19;3.00;2.50;1.50
67376;PMS7003;54261;46.086;6.588;2023-02-18T01:44:22;4.00;3.00;2.75
67376;PMS7003;54261;46.086;6.588;2023-02-18T01:49:27;5.75;5.75;3.00
67376;PMS7003;54261;46.086;6.588;2023-02-18T01:54:34;3.00;2.75;2.00
67376;PMS7003;54261;46.086;6.588;2023-02-18T01:59:45;2.75;2.75;2.25
67376;PMS7003;54261;46.086;6.588;2023-02-18T02:04:50;4.75;3.25;2.50
67376;PMS7003;54261;46.086;6.588;2023-02-18T02:09:53;2.75;2.75;2.00
67376;PMS7003;54261;46.086;6.588;2023-02-18T02:20:31;3.00;2.00;1.00
67376;PMS7003;54261;46.086;6.588;2023-02-18T02:47:08;4.00;2.50;1.25
67376;PMS7003;54261;46.086;6.588;2023-02-18T03:02:53;3.00;2.00;2.00
67376;PMS7003;54261;46.086;6.588;2023-02-18T03:24:07;2.25;2.25;1.25
67376;PMS7003;54261;46.086;6.588;2023-02-18T03:29:18;3.25;3.25;2.25
67376;PMS7003;54261;46.086;6.588;2023-02-18T03:34:24;3.50;2.25;2.00
67376;PMS7003;54261;46.086;6.588;2023-02-18T03:39:31;3.50;3.50;2.00
67376;PMS7003;54261;46.086;6.588;2023-02-18T03:44:37;2.75;2.50;1.75
67376;PMS7003;54261;46.086;6.588;2023-02-18T03:49:39;6.00;4.75;3.00
67376;PMS7003;54261;46.086;6.588;2023-02-18T03:54:41;2.00;2.00;2.00
67376;PMS7003;54261;46.086;6.588;2023-02-18T03:59:43;5.25;4.00;3.00
67376;PMS7003;54261;46.086;6.588;2023-02-18T04:04:45;6.75;6.00;5.00
67376;PMS7003;54261;46.086;6.588;2023-02-18T04:09:46;4.00;3.00;2.00
67376;PMS7003;54261;46.086;6.588;2023-02-18T04:14:48;5.50;3.75;2.75
67376;PMS7003;54261;46.086;6.588;2023-02-18T04:19:52;2.75;2.75;2.25
67376;PMS7003;54261;46.086;6.588;2023-02-18T04:24:54;3.00;3.00;2.00
67376;PMS7003;54261;46.086;6.588;2023-02-18T04:29:56;2.25;2.25;2.00
67376;PMS7003;54261;46.086;6.588;2023-02-18T04:34:58;3.00;3.00;1.75
67376;PMS7003;54261;46.086;6.588;2023-02-18T04:40:00;1.00;1.00;1.00
67376;PMS7003;54261;46.086;6.588;2023-02-18T04:45:01;1.00;1.00;0.25
67376;PMS7003;54261;46.086;6.588;2023-02-18T04:50:04;6.00;2.25;2.00
67376;PMS7003;54261;46.086;6.588;2023-02-18T04:55:06;2.75;2.50;2.00
67376;PMS7003;54261;46.086;6.588;2023-02-18T05:00:09;2.75;2.75;2.75
67376;PMS7003;54261;46.086;6.588;2023-02-18T05:05:15;3.00;3.00;2.75
67376;PMS7003;54261;46.086;6.588;2023-02-18T05:10:17;5.50;4.00;2.00
67376;PMS7003;54261;46.086;6.588;2023-02-18T05:15:19;4.00;3.00;2.00
67376;PMS7003;54261;46.086;6.588;2023-02-18T05:20:21;4.25;2.75;1.50
67376;PMS7003;54261;46.086;6.588;2023-02-18T05:25:23;4.25;2.75;2.00
67376;PMS7003;54261;46.086;6.588;2023-02-18T05:30:25;3.75;3.00;2.00
67376;PMS7003;54261;46.086;6.588;2023-02-18T05:35:27;2.00;2.00;2.00
67376;PMS7003;54261;46.086;6.588;2023-02-18T05:40:29;2.00;2.00;2.00
67376;PMS7003;54261;46.086;6.588;2023-02-18T05:45:31;2.50;2.50;2.00
67376;PMS7003;54261;46.086;6.588;2023-02-18T05:50:33;3.50;3.50;2.00
67376;PMS7003;54261;46.086;6.588;2023-02-18T05:55:35;3.50;1.50;0.50
67376;PMS7003;54261;46.086;6.588;2023-02-18T06:00:39;2.00;2.00;1.75
67376;PMS7003;54261;46.086;6.588;2023-02-18T06:05:41;2.00;2.00;1.50
67376;PMS7003;54261;46.086;6.588;2023-02-18T06:10:43;2.00;2.00;2.00
67376;PMS7003;54261;46.086;6.588;2023-02-18T06:15:45;2.00;2.00;2.00
67376;PMS7003;54261;46.086;6.588;2023-02-18T06:20:47;6.75;3.50;2.00
67376;PMS7003;54261;46.086;6.588;2023-02-18T06:25:49;2.00;2.00;2.00
67376;PMS7003;54261;46.086;6.588;2023-02-18T06:30:51;2.75;2.00;2.00
67376;PMS7003;54261;46.086;6.588;2023-02-18T06:35:57;9.00;7.00;5.25
67376;PMS7003;54261;46.086;6.588;2023-02-18T06:41:01;5.25;5.25;4.25
67376;PMS7003;54261;46.086;6.588;2023-02-18T06:46:03;5.25;5.25;3.25
67376;PMS7003;54261;46.086;6.588;2023-02-18T06:51:06;3.00;3.00;2.00
67376;PMS7003;54261;46.086;6.588;2023-02-18T06:56:08;3.00;2.00;1.00
67376;PMS7003;54261;46.086;6.588;2023-02-18T07:01:11;3.50;2.00;1.50
67376;PMS7003;54261;46.086;6.588;2023-02-18T07:06:12;3.00;2.00;2.00
67376;PMS7003;54261;46.086;6.588;2023-02-18T07:11:14;5.75;5.00;4.25
67376;PMS7003;54261;46.086;6.588;2023-02-18T07:16:16;3.00;3.00;2.00
67376;PMS7003;54261;46.086;6.588;2023-02-18T07:21:18;3.00;3.00;2.00
67376;PMS7003;54261;46.086;6.588;2023-02-18T07:26:20;3.00;3.00;2.00
67376;PMS7003;54261;46.086;6.588;2023-02-18T07:31:21;4.00;3.00;3.00
67376;PMS7003;54261;46.086;6.588;2023-02-18T07:36:23;3.00;3.00;2.00
67376;PMS7003;54261;46.086;6.588;2023-02-18T07:41:25;10.00;8.75;6.25
67376;PMS7003;54261;46.086;6.588;2023-02-18T07:46:27;19.50;18.25;11.50
67376;PMS7003;54261;46.086;6.588;2023-02-18T07:51:29;12.75;12.00;8.50
67376;PMS7003;54261;46.086;6.588;2023-02-18T07:56:30;15.50;8.25;6.25
67376;PMS7003;54261;46.086;6.588;2023-02-18T08:01:32;6.75;6.75;5.00
67376;PMS7003;54261;46.086;6.588;2023-02-18T08:06:38;7.00;7.00;6.00
67376;PMS7003;54261;46.086;6.588;2023-02-18T08:11:42;5.00;5.00;3.00
67376;PMS7003;54261;46.086;6.588;2023-02-18T08:16:44;3.00;3.00;2.00
67376;PMS7003;54261;46.086;6.588;2023-02-18T08:21:46;1.50;1.50;1.00
67376;PMS7003;54261;46.086;6.588;2023-02-18T08:26:48;4.25;2.25;1.00
67376;PMS7003;54261;46.086;6.588;2023-02-18T08:32:01;2.25;2.25;2.00
67376;PMS7003;54261;46.086;6.588;2023-02-18T08:37:03;2.50;2.50;1.50
67376;PMS7003;54261;46.086;6.588;2023-02-18T08:42:05;1.75;1.25;1.00
67376;PMS7003;54261;46.086;6.588;2023-02-18T08:47:07;2.00;1.00;1.00
67376;PMS7003;54261;46.086;6.588;2023-02-18T08:52:29;1.25;1.00;1.00
67376;PMS7003;54261;46.086;6.588;2023-02-18T08:57:31;1.00;1.00;0.75
67376;PMS7003;54261;46.086;6.588;2023-02-18T09:02:33;1.25;1.25;1.00
67376;PMS7003;54261;46.086;6.588;2023-02-18T09:07:36;1.00;1.00;1.00
67376;PMS7003;54261;46.086;6.588;2023-02-18T09:12:38;2.00;2.00;1.25
67376;PMS7003;54261;46.086;6.588;2023-02-18T09:17:40;1.50;1.00;1.00
67376;PMS7003;54261;46.086;6.588;2023-02-18T09:22:42;1.75;1.75;1.50
67376;PMS7003;54261;46.086;6.588;2023-02-18T09:27:43;1.25;1.25;1.00
67376;PMS7003;54261;46.086;6.588;2023-02-18T09:32:45;3.50;2.25;1.25
67376;PMS7003;54261;46.086;6.588;2023-02-18T09:37:47;3.75;2.00;2.00
67376;PMS7003;54261;46.086;6.588;2023-02-18T09:42:49;6.50;5.00;2.50
67376;PMS7003;54261;46.086;6.588;2023-02-18T09:47:51;6.25;5.00;3.00
67376;PMS7003;54261;46.086;6.588;2023-02-18T09:52:53;3.25;3.25;2.75
67376;PMS7003;54261;46.086;6.588;2023-02-18T09:58:00;2.50;2.25;2.00
67376;PMS7003;54261;46.086;6.588;2023-02-18T10:03:23;2.25;2.25;1.50
67376;PMS7003;54261;46.086;6.588;2023-02-18T10:08:32;4.00;3.00;2.00
67376;PMS7003;54261;46.086;6.588;2023-02-18T10:13:37;2.25;2.25;2.00
67376;PMS7003;54261;46.086;6.588;2023-02-18T10:18:40;6.00;6.00;4.00
67376;PMS7003;54261;46.086;6.588;2023-02-18T10:29:04;3.50;3.50;2.50
67376;PMS7003;54261;46.086;6.588;2023-02-18T10:34:21;6.00;3.75;2.00
67376;PMS7003;54261;46.086;6.588;2023-02-18T10:40:03;5.25;4.00;2.00
67376;PMS7003;54261;46.086;6.588;2023-02-18T10:50:39;7.50;4.25;3.50
67376;PMS7003;54261;46.086;6.588;2023-02-18T10:55:43;3.00;3.00;3.00
67376;PMS7003;54261;46.086;6.588;2023-02-18T11:00:47;2.75;2.50;2.00
67376;PMS7003;54261;46.086;6.588;2023-02-18T11:05:53;2.75;2.75;2.50
67376;PMS7003;54261;46.086;6.588;2023-02-18T11:10:56;4.00;3.00;2.00
67376;PMS7003;54261;46.086;6.588;2023-02-18T11:16:00;3.00;3.00;2.00
67376;PMS7003;54261;46.086;6.588;2023-02-18T11:21:08;7.25;5.25;3.50
67376;PMS7003;54261;46.086;6.588;2023-02-18T11:26:31;5.00;1.75;1.00
67376;PMS7003;54261;46.086;6.588;2023-02-18T11:31:42;5.50;5.50;3.00
67376;PMS7003;54261;46.086;6.588;2023-02-18T11:36:47;3.00;3.00;2.67
67376;PMS7003;54261;46.086;6.588;2023-02-18T11:42:01;3.00;3.00;2.67
67376;PMS7003;54261;46.086;6.588;2023-02-18T11:52:16;4.33;3.00;2.67
67376;PMS7003;54261;46.086;6.588;2023-02-18T11:57:19;6.00;5.00;4.00
67376;PMS7003;54261;46.086;6.588;2023-02-18T12:02:29;4.00;4.00;3.67
67376;PMS7003;54261;46.086;6.588;2023-02-18T12:07:46;5.67;5.00;4.33
67376;PMS7003;54261;46.086;6.588;2023-02-18T12:12:53;5.67;5.67;4.00
67376;PMS7003;54261;46.086;6.588;2023-02-18T12:18:16;3.00;3.00;3.00
67376;PMS7003;54261;46.086;6.588;2023-02-18T12:34:49;4.33;4.00;4.00
67376;PMS7003;54261;46.086;6.588;2023-02-18T13:18:13;8.33;6.67;6.00
67376;PMS7003;54261;46.086;6.588;2023-02-18T13:23:25;6.67;6.67;5.33
67376;PMS7003;54261;46.086;6.588;2023-02-18T13:28:46;6.00;6.00;4.33
67376;PMS7003;54261;46.086;6.588;2023-02-18T13:39:11;5.00;5.00;4.00
67376;PMS7003;54261;46.086;6.588;2023-02-18T13:49:24;6.00;6.00;5.00
67376;PMS7003;54261;46.086;6.588;2023-02-18T13:54:41;6.00;5.00;4.33
67376;PMS7003;54261;46.086;6.588;2023-02-18T13:59:47;7.67;6.67;5.00
67376;PMS7003;54261;46.086;6.588;2023-02-18T14:04:56;4.33;4.33;3.67
67376;PMS7003;54261;46.086;6.588;2023-02-18T14:25:38;9.00;7.00;5.00
67376;PMS7003;54261;46.086;6.588;2023-02-18T14:30:41;9.67;6.33;4.00
67376;PMS7003;54261;46.086;6.588;2023-02-18T14:35:55;5.67;5.67;4.67
67376;PMS7003;54261;46.086;6.588;2023-02-18T14:46:24;2.67;2.00;1.00
67376;PMS7003;54261;46.086;6.588;2023-02-18T14:51:36;4.00;4.00;4.00
67376;PMS7003;54261;46.086;6.588;2023-02-18T14:56:50;3.67;3.00;2.00
67376;PMS7003;54261;46.086;6.588;2023-02-18T15:01:56;5.00;4.00;3.00
67376;PMS7003;54261;46.086;6.588;2023-02-18T15:06:59;8.00;7.67;5.00
67376;PMS7003;54261;46.086;6.588;2023-02-18T15:12:04;4.33;4.00;3.00
67376;PMS7003;54261;46.086;6.588;2023-02-18T15:17:12;6.67;5.00;4.00
67376;PMS7003;54261;46.086;6.588;2023-02-18T15:22:19;5.00;5.00;4.00
67376;PMS7003;54261;46.086;6.588;2023-02-18T15:27:24;5.00;3.33;2.00
67376;PMS7003;54261;46.086;6.588;2023-02-18T15:32:33;5.00;5.00;4.33
67376;PMS7003;54261;46.086;6.588;2023-02-18T15:37:35;10.00;8.67;5.00
67376;PMS7003;54261;46.086;6.588;2023-02-18T15:42:36;6.00;6.00;4.67
67376;PMS7003;54261;46.086;6.588;2023-02-18T15:47:49;7.00;7.00;5.00
67376;PMS7003;54261;46.086;6.588;2023-02-18T15:52:54;5.67;4.00;4.00
67376;PMS7003;54261;46.086;6.588;2023-02-18T15:58:04;5.00;4.33;3.00
67376;PMS7003;54261;46.086;6.588;2023-02-18T16:03:23;5.00;5.00;4.00
67376;PMS7003;54261;46.086;6.588;2023-02-18T16:08:26;4.67;4.67;3.67
67376;PMS7003;54261;46.086;6.588;2023-02-18T16:13:28;5.00;4.00;3.00
67376;PMS7003;54261;46.086;6.588;2023-02-18T16:18:36;4.67;4.67;4.00
67376;PMS7003;54261;46.086;6.588;2023-02-18T16:23:42;9.33;6.67;5.00
67376;PMS7003;54261;46.086;6.588;2023-02-18T16:28:46;4.67;4.67;3.67
67376;PMS7003;54261;46.086;6.588;2023-02-18T16:33:51;2.33;2.33;2.00
67376;PMS7003;54261;46.086;6.588;2023-02-18T16:38:53;5.00;4.00;3.00
67376;PMS7003;54261;46.086;6.588;2023-02-18T16:43:55;4.67;3.00;3.00
67376;PMS7003;54261;46.086;6.588;2023-02-18T16:48:57;3.00;3.00;2.67
67376;PMS7003;54261;46.086;6.588;2023-02-18T16:53:59;4.00;4.00;3.00
67376;PMS7003;54261;46.086;6.588;2023-02-18T16:59:01;3.33;3.33;3.00
67376;PMS7003;54261;46.086;6.588;2023-02-18T17:04:04;5.00;4.00;3.00
67376;PMS7003;54261;46.086;6.588;2023-02-18T17:09:24;4.00;4.00;3.67
67376;PMS7003;54261;46.086;6.588;2023-02-18T17:14:27;3.67;3.67;3.00
67376;PMS7003;54261;46.086;6.588;2023-02-18T17:19:29;6.33;6.00;5.00
67376;PMS7003;54261;46.086;6.588;2023-02-18T17:24:31;5.00;4.00;4.00
67376;PMS7003;54261;46.086;6.588;2023-02-18T17:29:33;6.33;6.33;5.33
67376;PMS7003;54261;46.086;6.588;2023-02-18T17:34:35;7.67;7.67;6.67
67376;PMS7003;54261;46.086;6.588;2023-02-18T17:39:38;7.00;6.00;4.33
67376;PMS7003;54261;46.086;6.588;2023-02-18T17:44:40;6.00;5.00;4.33
67376;PMS7003;54261;46.086;6.588;2023-02-18T17:49:42;5.00;5.00;4.33
67376;PMS7003;54261;46.086;6.588;2023-02-18T17:54:44;13.00;11.67;9.00
67376;PMS7003;54261;46.086;6.588;2023-02-18T17:59:46;7.00;7.00;5.67
67376;PMS7003;54261;46.086;6.588;2023-02-18T18:04:48;7.33;6.00;5.00
67376;PMS7003;54261;46.086;6.588;2023-02-18T18:09:50;7.00;7.00;6.00
67376;PMS7003;54261;46.086;6.588;2023-02-18T18:14:51;6.33;6.33;4.67
67376;PMS7003;54261;46.086;6.588;2023-02-18T18:19:53;6.00;6.00;5.00
67376;PMS7003;54261;46.086;6.588;2023-02-18T18:24:55;6.00;6.00;5.00
67376;PMS7003;54261;46.086;6.588;2023-02-18T18:29:57;6.00;6.00;6.00
67376;PMS7003;54261;46.086;6.588;2023-02-18T18:34:58;15.33;12.00;9.33
67376;PMS7003;54261;46.086;6.588;2023-02-18T18:40:00;6.00;6.00;4.00
67376;PMS7003;54261;46.086;6.588;2023-02-18T18:45:02;4.33;4.33;4.00
67376;PMS7003;54261;46.086;6.588;2023-02-18T18:50:05;3.67;3.00;3.00
67376;PMS7003;54261;46.086;6.588;2023-02-18T19:00:33;5.75;4.75;4.00
67376;PMS7003;54261;46.086;6.588;2023-02-18T19:05:41;6.75;5.50;5.00
67376;PMS7003;54261;46.086;6.588;2023-02-18T19:10:46;8.25;8.25;5.50
67376;PMS7003;54261;46.086;6.588;2023-02-18T19:15:51;8.50;8.00;6.00
67376;PMS7003;54261;46.086;6.588;2023-02-18T19:21:01;10.50;9.75;8.00
67376;PMS7003;54261;46.086;6.588;2023-02-18T19:26:05;9.25;8.25;5.00
67376;PMS7003;54261;46.086;6.588;2023-02-18T19:31:08;7.50;5.50;3.75
67376;PMS7003;54261;46.086;6.588;2023-02-18T19:36:11;8.00;7.75;5.50
67376;PMS7003;54261;46.086;6.588;2023-02-18T19:41:15;17.25;16.00;11.75
67376;PMS7003;54261;46.086;6.588;2023-02-18T19:46:17;13.50;11.50;10.00
67376;PMS7003;54261;46.086;6.588;2023-02-18T19:51:19;13.00;13.00;10.50
67376;PMS7003;54261;46.086;6.588;2023-02-18T19:56:25;11.25;11.25;9.50
67376;PMS7003;54261;46.086;6.588;2023-02-18T20:01:26;10.25;9.25;6.00
67376;PMS7003;54261;46.086;6.588;2023-02-18T20:06:28;12.00;12.00;9.00
67376;PMS7003;54261;46.086;6.588;2023-02-18T20:11:30;7.00;7.00;5.50
67376;PMS7003;54261;46.086;6.588;2023-02-18T20:16:32;5.50;4.50;3.50
67376;PMS7003;54261;46.086;6.588;2023-02-18T20:21:34;11.25;10.25;7.00
67376;PMS7003;54261;46.086;6.588;2023-02-18T20:26:36;13.50;11.00;9.00
67376;PMS7003;54261;46.086;6.588;2023-02-18T20:31:38;13.00;11.50;9.50
67376;PMS7003;54261;46.086;6.588;2023-02-18T20:36:44;10.50;10.25;8.00
67376;PMS7003;54261;46.086;6.588;2023-02-18T20:41:48;10.00;10.00;9.00
67376;PMS7003;54261;46.086;6.588;2023-02-18T20:46:50;12.50;10.25;8.00
67376;PMS7003;54261;46.086;6.588;2023-02-18T20:51:52;8.50;8.50;7.25
67376;PMS7003;54261;46.086;6.588;2023-02-18T20:56:54;6.50;5.25;4.25
67376;PMS7003;54261;46.086;6.588;2023-02-18T21:01:55;10.00;5.00;4.75
67376;PMS7003;54261;46.086;6.588;2023-02-18T21:06:57;8.75;7.50;6.00
67376;PMS7003;54261;46.086;6.588;2023-02-18T21:11:59;9.75;9.00;6.25
67376;PMS7003;54261;46.086;6.588;2023-02-18T21:17:01;12.50;12.50;8.75
67376;PMS7003;54261;46.086;6.588;2023-02-18T21:22:03;18.00;16.25;11.00
67376;PMS7003;54261;46.086;6.588;2023-02-18T21:27:05;12.00;11.00;8.75
67376;PMS7003;54261;46.086;6.588;2023-02-18T21:32:07;10.25;6.25;4.25
67376;PMS7003;54261;46.086;6.588;2023-02-18T21:37:09;9.75;9.50;8.00
67376;PMS7003;54261;46.086;6.588;2023-02-18T21:42:11;11.00;10.50;6.00
67376;PMS7003;54261;46.086;6.588;2023-02-18T21:47:13;8.25;7.75;5.00
67376;PMS7003;54261;46.086;6.588;2023-02-18T21:52:15;7.50;7.50;4.50
67376;PMS7003;54261;46.086;6.588;2023-02-18T21:57:17;8.50;7.25;6.00
67376;PMS7003;54261;46.086;6.588;2023-02-18T22:02:23;10.00;6.50;4.00
67376;PMS7003;54261;46.086;6.588;2023-02-18T22:07:27;8.50;8.50;7.00
67376;PMS7003;54261;46.086;6.588;2023-02-18T22:12:30;7.50;6.50;4.00
67376;PMS7003;54261;46.086;6.588;2023-02-18T22:17:33;8.25;7.75;6.00
67376;PMS7003;54261;46.086;6.588;2023-02-18T22:22:35;10.75;10.00;7.00
67376;PMS7003;54261;46.086;6.588;2023-02-18T22:27:36;7.00;5.75;5.00
67376;PMS7003;54261;46.086;6.588;2023-02-18T22:32:38;6.75;6.75;5.50
67376;PMS7003;54261;46.086;6.588;2023-02-18T22:37:40;2.00;2.00;2.00
67376;PMS7003;54261;46.086;6.588;2023-02-18T22:42:42;5.50;5.50;3.00
67376;PMS7003;54261;46.086;6.588;2023-02-18T22:47:44;8.75;8.00;5.25
67376;PMS7003;54261;46.086;6.588;2023-02-18T22:52:45;3.50;3.00;2.00
67376;PMS7003;54261;46.086;6.588;2023-02-18T22:57:47;3.00;3.00;2.75
67376;PMS7003;54261;46.086;6.588;2023-02-18T23:02:50;7.00;7.00;3.75
67376;PMS7003;54261;46.086;6.588;2023-02-18T23:07:55;10.75;10.00;8.50
67376;PMS7003;54261;46.086;6.588;2023-02-18T23:12:57;10.50;9.50;7.75
67376;PMS7003;54261;46.086;6.588;2023-02-18T23:17:58;10.00;9.50;7.50
67376;PMS7003;54261;46.086;6.588;2023-02-18T23:23:00;9.75;9.00;8.00
67376;PMS7003;54261;46.086;6.588;2023-02-18T23:28:02;12.00;12.00;8.50
67376;PMS7003;54261;46.086;6.588;2023-02-18T23:33:04;14.25;11.25;8.00
67376;PMS7003;54261;46.086;6.588;2023-02-18T23:38:07;11.50;8.00;6.00
67376;PMS7003;54261;46.086;6.588;2023-02-18T23:43:09;4.75;3.00;3.00
67376;PMS7003;54261;46.086;6.588;2023-02-18T23:48:11;1.50;1.50;1.50
67376;PMS7003;54261;46.086;6.588;2023-02-18T23:53:13;6.00;6.00;2.75
67376;PMS7003;54261;46.086;6.588;2023-02-18T23:58:14;4.75;3.75;3.00
